sensor_id;sensor_type;location;lat;lon;timestamp;P1;durP1;ratioP1;P2;durP2;ratioP2
72559;SDS011;62987;52.382;9.752;2023-07-29T00:01:49;3.28;;;1.60;;
72559;SDS011;62987;52.382;9.752;2023-07-29T00:04:17;2.40;;;1.08;;
72559;SDS011;62987;52.382;9.752;2023-07-29T00:06:46;3.25;;;1.60;;
72559;SDS011;62987;52.382;9.752;2023-07-29T00:09:14;2.78;;;1.15;;
72559;SDS011;62987;52.382;9.752;2023-07-29T00:11:44;5.03;;;1.25;;
72559;SDS011;62987;52.382;9.752;2023-07-29T00:14:12;2.33;;;1.10;;
72559;SDS011;62987;52.382;9.752;2023-07-29T00:16:40;2.08;;;0.95;;
72559;SDS011;62987;52.382;9.752;2023-07-29T00:19:08;2.97;;;1.00;;
72559;SDS011;62987;52.382;9.752;2023-07-29T00:21:36;3.08;;;0.98;;
72559;SDS011;62987;52.382;9.752;2023-07-29T00:24:05;2.72;;;1.08;;
72559;SDS011;62987;52.382;9.752;2023-07-29T00:26:33;2.95;;;1.02;;
72559;SDS011;62987;52.382;9.752;2023-07-29T00:29:04;3.05;;;1.10;;
72559;SDS011;62987;52.382;9.752;2023-07-29T00:31:32;2.50;;;0.90;;
72559;SDS011;62987;52.382;9.752;2023-07-29T00:34:00;2.35;;;1.05;;
72559;SDS011;62987;52.382;9.752;2023-07-29T00:36:28;2.40;;;0.98;;
72559;SDS011;62987;52.382;9.752;2023-07-29T00:38:56;2.30;;;0.90;;
72559;SDS011;62987;52.382;9.752;2023-07-29T00:41:24;2.63;;;1.15;;
72559;SDS011;62987;52.382;9.752;2023-07-29T00:43:53;2.20;;;1.00;;
72559;SDS011;62987;52.382;9.752;2023-07-29T00:46:23;2.95;;;1.00;;
72559;SDS011;62987;52.382;9.752;2023-07-29T00:48:52;3.67;;;0.88;;
72559;SDS011;62987;52.382;9.752;2023-07-29T00:51:22;2.80;;;1.50;;
72559;SDS011;62987;52.382;9.752;2023-07-29T00:53:50;3.72;;;1.15;;
72559;SDS011;62987;52.382;9.752;2023-07-29T00:56:18;2.67;;;1.17;;
72559;SDS011;62987;52.382;9.752;2023-07-29T00:58:46;2.38;;;1.00;;
72559;SDS011;62987;52.382;9.752;2023-07-29T01:01:14;4.10;;;1.30;;
72559;SDS011;62987;52.382;9.752;2023-07-29T01:03:44;2.30;;;0.80;;
72559;SDS011;62987;52.382;9.752;2023-07-29T01:06:13;3.38;;;1.25;;
72559;SDS011;62987;52.382;9.752;2023-07-29T01:08:51;8.15;;;1.65;;
72559;SDS011;62987;52.382;9.752;2023-07-29T01:11:31;1.95;;;0.82;;
72559;SDS011;62987;52.382;9.752;2023-07-29T01:14:11;2.25;;;1.10;;
72559;SDS011;62987;52.382;9.752;2023-07-29T01:16:50;2.88;;;1.30;;
72559;SDS011;62987;52.382;9.752;2023-07-29T01:19:30;2.30;;;0.90;;
72559;SDS011;62987;52.382;9.752;2023-07-29T01:22:10;3.28;;;1.40;;
72559;SDS011;62987;52.382;9.752;2023-07-29T01:24:40;2.88;;;1.13;;
72559;SDS011;62987;52.382;9.752;2023-07-29T01:27:10;3.30;;;1.15;;
72559;SDS011;62987;52.382;9.752;2023-07-29T01:29:39;2.85;;;1.10;;
72559;SDS011;62987;52.382;9.752;2023-07-29T01:32:10;4.00;;;0.98;;
72559;SDS011;62987;52.382;9.752;2023-07-29T01:34:44;2.95;;;1.20;;
72559;SDS011;62987;52.382;9.752;2023-07-29T01:37:19;3.97;;;0.95;;
72559;SDS011;62987;52.382;9.752;2023-07-29T01:39:53;3.78;;;1.33;;
72559;SDS011;62987;52.382;9.752;2023-07-29T01:42:24;3.97;;;1.58;;
72559;SDS011;62987;52.382;9.752;2023-07-29T01:44:56;3.13;;;1.40;;
72559;SDS011;62987;52.382;9.752;2023-07-29T01:47:24;1.70;;;0.70;;
72559;SDS011;62987;52.382;9.752;2023-07-29T01:49:54;10.95;;;1.05;;
72559;SDS011;62987;52.382;9.752;2023-07-29T01:52:22;3.40;;;1.10;;
72559;SDS011;62987;52.382;9.752;2023-07-29T01:54:50;2.50;;;1.20;;
72559;SDS011;62987;52.382;9.752;2023-07-29T01:57:19;2.33;;;1.00;;
72559;SDS011;62987;52.382;9.752;2023-07-29T01:59:47;2.30;;;1.00;;
72559;SDS011;62987;52.382;9.752;2023-07-29T02:02:15;5.38;;;1.00;;
72559;SDS011;62987;52.382;9.752;2023-07-29T02:04:43;2.63;;;1.10;;
72559;SDS011;62987;52.382;9.752;2023-07-29T02:07:17;2.33;;;1.00;;
72559;SDS011;62987;52.382;9.752;2023-07-29T02:09:46;2.60;;;1.35;;
72559;SDS011;62987;52.382;9.752;2023-07-29T02:12:14;2.95;;;1.33;;
72559;SDS011;62987;52.382;9.752;2023-07-29T02:14:43;3.08;;;1.13;;
72559;SDS011;62987;52.382;9.752;2023-07-29T02:17:11;4.50;;;1.08;;
72559;SDS011;62987;52.382;9.752;2023-07-29T02:19:41;2.63;;;0.95;;
72559;SDS011;62987;52.382;9.752;2023-07-29T02:22:10;2.45;;;0.93;;
72559;SDS011;62987;52.382;9.752;2023-07-29T02:24:40;2.15;;;0.98;;
72559;SDS011;62987;52.382;9.752;2023-07-29T02:27:09;1.98;;;0.95;;
72559;SDS011;62987;52.382;9.752;2023-07-29T02:29:37;2.78;;;1.00;;
72559;SDS011;62987;52.382;9.752;2023-07-29T02:32:06;3.13;;;1.15;;
72559;SDS011;62987;52.382;9.752;2023-07-29T02:34:34;3.10;;;1.38;;
72559;SDS011;62987;52.382;9.752;2023-07-29T02:37:03;3.00;;;1.00;;
72559;SDS011;62987;52.382;9.752;2023-07-29T02:39:31;3.97;;;1.17;;
72559;SDS011;62987;52.382;9.752;2023-07-29T02:41:59;3.10;;;0.95;;
72559;SDS011;62987;52.382;9.752;2023-07-29T02:44:27;3.08;;;1.20;;
72559;SDS011;62987;52.382;9.752;2023-07-29T02:46:55;2.47;;;1.00;;
72559;SDS011;62987;52.382;9.752;2023-07-29T02:49:25;2.40;;;1.05;;
72559;SDS011;62987;52.382;9.752;2023-07-29T02:51:53;1.92;;;0.80;;
72559;SDS011;62987;52.382;9.752;2023-07-29T02:54:21;2.33;;;0.93;;
72559;SDS011;62987;52.382;9.752;2023-07-29T02:56:49;2.78;;;1.20;;
72559;SDS011;62987;52.382;9.752;2023-07-29T02:59:18;2.72;;;0.98;;
72559;SDS011;62987;52.382;9.752;2023-07-29T03:01:46;3.28;;;1.30;;
72559;SDS011;62987;52.382;9.752;2023-07-29T03:04:14;3.25;;;1.30;;
72559;SDS011;62987;52.382;9.752;2023-07-29T03:06:43;3.53;;;1.00;;
72559;SDS011;62987;52.382;9.752;2023-07-29T03:09:11;3.10;;;1.05;;
72559;SDS011;62987;52.382;9.752;2023-07-29T03:11:39;2.95;;;1.25;;
72559;SDS011;62987;52.382;9.752;2023-07-29T03:14:07;3.00;;;1.23;;
72559;SDS011;62987;52.382;9.752;2023-07-29T03:16:35;2.20;;;1.30;;
72559;SDS011;62987;52.382;9.752;2023-07-29T03:19:04;3.03;;;1.27;;
72559;SDS011;62987;52.382;9.752;2023-07-29T03:21:32;3.20;;;1.25;;
72559;SDS011;62987;52.382;9.752;2023-07-29T03:24:02;2.15;;;0.90;;
72559;SDS011;62987;52.382;9.752;2023-07-29T03:26:30;2.95;;;1.10;;
72559;SDS011;62987;52.382;9.752;2023-07-29T03:28:58;2.10;;;0.95;;
72559;SDS011;62987;52.382;9.752;2023-07-29T03:31:26;2.55;;;1.08;;
72559;SDS011;62987;52.382;9.752;2023-07-29T03:33:54;2.65;;;0.88;;
72559;SDS011;62987;52.382;9.752;2023-07-29T03:36:22;2.45;;;1.05;;
72559;SDS011;62987;52.382;9.752;2023-07-29T03:38:52;2.08;;;0.85;;
72559;SDS011;62987;52.382;9.752;2023-07-29T03:41:21;2.92;;;1.20;;
72559;SDS011;62987;52.382;9.752;2023-07-29T03:43:49;1.55;;;0.70;;
72559;SDS011;62987;52.382;9.752;2023-07-29T03:46:17;2.97;;;1.30;;
72559;SDS011;62987;52.382;9.752;2023-07-29T03:48:48;2.60;;;1.20;;
72559;SDS011;62987;52.382;9.752;2023-07-29T03:51:16;2.05;;;1.00;;
72559;SDS011;62987;52.382;9.752;2023-07-29T03:53:45;3.13;;;1.23;;
72559;SDS011;62987;52.382;9.752;2023-07-29T03:56:13;2.60;;;0.95;;
72559;SDS011;62987;52.382;9.752;2023-07-29T03:58:42;2.13;;;1.00;;
72559;SDS011;62987;52.382;9.752;2023-07-29T04:01:11;3.60;;;1.10;;
72559;SDS011;62987;52.382;9.752;2023-07-29T04:03:39;3.05;;;1.10;;
72559;SDS011;62987;52.382;9.752;2023-07-29T04:06:07;3.47;;;1.23;;
72559;SDS011;62987;52.382;9.752;2023-07-29T04:08:35;2.00;;;0.88;;
72559;SDS011;62987;52.382;9.752;2023-07-29T04:11:03;2.50;;;1.02;;
72559;SDS011;62987;52.382;9.752;2023-07-29T04:13:31;2.90;;;1.20;;
72559;SDS011;62987;52.382;9.752;2023-07-29T04:16:01;4.72;;;0.98;;
72559;SDS011;62987;52.382;9.752;2023-07-29T04:18:29;2.30;;;1.00;;
72559;SDS011;62987;52.382;9.752;2023-07-29T04:20:57;2.05;;;0.88;;
72559;SDS011;62987;52.382;9.752;2023-07-29T04:23:25;2.60;;;1.10;;
72559;SDS011;62987;52.382;9.752;2023-07-29T04:25:53;3.22;;;1.20;;
72559;SDS011;62987;52.382;9.752;2023-07-29T04:28:21;3.35;;;1.30;;
72559;SDS011;62987;52.382;9.752;2023-07-29T04:30:49;2.42;;;0.98;;
72559;SDS011;62987;52.382;9.752;2023-07-29T04:33:18;2.50;;;1.05;;
72559;SDS011;62987;52.382;9.752;2023-07-29T04:35:46;3.90;;;1.58;;
72559;SDS011;62987;52.382;9.752;2023-07-29T04:38:14;2.35;;;0.98;;
72559;SDS011;62987;52.382;9.752;2023-07-29T04:40:42;3.28;;;1.52;;
72559;SDS011;62987;52.382;9.752;2023-07-29T04:43:10;3.17;;;1.20;;
72559;SDS011;62987;52.382;9.752;2023-07-29T04:45:42;2.97;;;1.00;;
72559;SDS011;62987;52.382;9.752;2023-07-29T04:48:10;2.85;;;1.20;;
72559;SDS011;62987;52.382;9.752;2023-07-29T04:50:40;2.50;;;1.10;;
72559;SDS011;62987;52.382;9.752;2023-07-29T04:53:08;2.08;;;0.90;;
72559;SDS011;62987;52.382;9.752;2023-07-29T04:55:36;2.92;;;0.98;;
72559;SDS011;62987;52.382;9.752;2023-07-29T04:58:04;2.90;;;1.60;;
72559;SDS011;62987;52.382;9.752;2023-07-29T05:00:32;3.45;;;1.13;;
72559;SDS011;62987;52.382;9.752;2023-07-29T05:03:00;2.83;;;1.05;;
72559;SDS011;62987;52.382;9.752;2023-07-29T05:05:28;2.25;;;1.00;;
72559;SDS011;62987;52.382;9.752;2023-07-29T05:07:58;3.33;;;1.40;;
72559;SDS011;62987;52.382;9.752;2023-07-29T05:10:26;2.67;;;1.00;;
72559;SDS011;62987;52.382;9.752;2023-07-29T05:12:54;3.55;;;1.67;;
72559;SDS011;62987;52.382;9.752;2023-07-29T05:15:22;2.83;;;1.10;;
72559;SDS011;62987;52.382;9.752;2023-07-29T05:17:50;3.83;;;1.30;;
72559;SDS011;62987;52.382;9.752;2023-07-29T05:20:18;2.65;;;0.98;;
72559;SDS011;62987;52.382;9.752;2023-07-29T05:22:46;4.00;;;1.30;;
72559;SDS011;62987;52.382;9.752;2023-07-29T05:25:16;4.10;;;1.50;;
72559;SDS011;62987;52.382;9.752;2023-07-29T05:27:44;3.20;;;1.15;;
72559;SDS011;62987;52.382;9.752;2023-07-29T05:30:12;3.15;;;1.42;;
72559;SDS011;62987;52.382;9.752;2023-07-29T05:32:40;3.15;;;1.40;;
72559;SDS011;62987;52.382;9.752;2023-07-29T05:35:08;3.03;;;1.23;;
72559;SDS011;62987;52.382;9.752;2023-07-29T05:37:37;2.90;;;1.30;;
72559;SDS011;62987;52.382;9.752;2023-07-29T05:40:06;3.05;;;1.40;;
72559;SDS011;62987;52.382;9.752;2023-07-29T05:42:37;3.13;;;1.65;;
72559;SDS011;62987;52.382;9.752;2023-07-29T05:45:05;2.85;;;1.20;;
72559;SDS011;62987;52.382;9.752;2023-07-29T05:47:34;3.38;;;1.25;;
72559;SDS011;62987;52.382;9.752;2023-07-29T05:50:03;2.95;;;1.10;;
72559;SDS011;62987;52.382;9.752;2023-07-29T05:52:32;2.30;;;1.00;;
72559;SDS011;62987;52.382;9.752;2023-07-29T05:55:03;2.67;;;1.05;;
72559;SDS011;62987;52.382;9.752;2023-07-29T05:57:32;2.13;;;1.00;;
72559;SDS011;62987;52.382;9.752;2023-07-29T06:00:01;3.15;;;1.40;;
72559;SDS011;62987;52.382;9.752;2023-07-29T06:02:39;3.50;;;1.20;;
72559;SDS011;62987;52.382;9.752;2023-07-29T06:05:10;2.70;;;1.40;;
72559;SDS011;62987;52.382;9.752;2023-07-29T06:07:38;3.08;;;1.30;;
72559;SDS011;62987;52.382;9.752;2023-07-29T06:10:12;2.53;;;1.13;;
72559;SDS011;62987;52.382;9.752;2023-07-29T06:12:40;3.47;;;1.27;;
72559;SDS011;62987;52.382;9.752;2023-07-29T06:15:10;3.10;;;1.10;;
72559;SDS011;62987;52.382;9.752;2023-07-29T06:17:38;2.80;;;1.30;;
72559;SDS011;62987;52.382;9.752;2023-07-29T06:20:07;3.70;;;1.50;;
72559;SDS011;62987;52.382;9.752;2023-07-29T06:22:36;3.65;;;1.25;;
72559;SDS011;62987;52.382;9.752;2023-07-29T06:25:04;2.60;;;1.13;;
72559;SDS011;62987;52.382;9.752;2023-07-29T06:27:33;3.08;;;1.45;;
72559;SDS011;62987;52.382;9.752;2023-07-29T06:30:01;3.30;;;1.50;;
72559;SDS011;62987;52.382;9.752;2023-07-29T06:32:31;2.55;;;1.08;;
72559;SDS011;62987;52.382;9.752;2023-07-29T06:34:59;2.50;;;0.90;;
72559;SDS011;62987;52.382;9.752;2023-07-29T06:37:27;3.90;;;1.60;;
72559;SDS011;62987;52.382;9.752;2023-07-29T06:39:55;3.28;;;1.30;;
72559;SDS011;62987;52.382;9.752;2023-07-29T06:42:23;3.17;;;1.30;;
72559;SDS011;62987;52.382;9.752;2023-07-29T06:44:51;4.82;;;1.73;;
72559;SDS011;62987;52.382;9.752;2023-07-29T06:47:19;2.55;;;1.20;;
72559;SDS011;62987;52.382;9.752;2023-07-29T06:49:49;4.38;;;1.40;;
72559;SDS011;62987;52.382;9.752;2023-07-29T06:52:17;3.22;;;1.35;;
72559;SDS011;62987;52.382;9.752;2023-07-29T06:54:45;2.88;;;1.40;;
72559;SDS011;62987;52.382;9.752;2023-07-29T06:57:13;2.53;;;1.20;;
72559;SDS011;62987;52.382;9.752;2023-07-29T06:59:41;2.33;;;1.20;;
72559;SDS011;62987;52.382;9.752;2023-07-29T07:02:09;5.53;;;1.30;;
72559;SDS011;62987;52.382;9.752;2023-07-29T07:04:37;3.95;;;1.52;;
72559;SDS011;62987;52.382;9.752;2023-07-29T07:07:06;2.40;;;1.17;;
72559;SDS011;62987;52.382;9.752;2023-07-29T07:09:34;2.65;;;1.42;;
72559;SDS011;62987;52.382;9.752;2023-07-29T07:12:02;3.53;;;1.17;;
72559;SDS011;62987;52.382;9.752;2023-07-29T07:14:30;2.15;;;1.00;;
72559;SDS011;62987;52.382;9.752;2023-07-29T07:16:58;4.32;;;1.50;;
72559;SDS011;62987;52.382;9.752;2023-07-29T07:19:26;2.70;;;1.17;;
72559;SDS011;62987;52.382;9.752;2023-07-29T07:21:54;2.72;;;1.10;;
72559;SDS011;62987;52.382;9.752;2023-07-29T07:24:24;2.78;;;1.10;;
72559;SDS011;62987;52.382;9.752;2023-07-29T07:26:52;5.45;;;1.02;;
72559;SDS011;62987;52.382;9.752;2023-07-29T07:29:19;2.50;;;1.20;;
72559;SDS011;62987;52.382;9.752;2023-07-29T07:31:49;2.70;;;0.93;;
72559;SDS011;62987;52.382;9.752;2023-07-29T07:34:18;3.00;;;1.10;;
72559;SDS011;62987;52.382;9.752;2023-07-29T07:36:46;3.58;;;1.20;;
72559;SDS011;62987;52.382;9.752;2023-07-29T07:39:14;5.15;;;1.52;;
72559;SDS011;62987;52.382;9.752;2023-07-29T07:41:44;1.73;;;0.80;;
72559;SDS011;62987;52.382;9.752;2023-07-29T07:44:12;2.95;;;1.15;;
72559;SDS011;62987;52.382;9.752;2023-07-29T07:46:44;2.80;;;1.33;;
72559;SDS011;62987;52.382;9.752;2023-07-29T07:49:12;3.20;;;1.20;;
72559;SDS011;62987;52.382;9.752;2023-07-29T07:51:40;2.90;;;1.38;;
72559;SDS011;62987;52.382;9.752;2023-07-29T07:54:08;2.92;;;1.30;;
72559;SDS011;62987;52.382;9.752;2023-07-29T07:56:36;2.55;;;1.15;;
72559;SDS011;62987;52.382;9.752;2023-07-29T07:59:06;2.67;;;1.30;;
72559;SDS011;62987;52.382;9.752;2023-07-29T08:01:35;2.80;;;1.40;;
72559;SDS011;62987;52.382;9.752;2023-07-29T08:04:03;3.42;;;1.20;;
72559;SDS011;62987;52.382;9.752;2023-07-29T08:06:32;2.63;;;1.08;;
72559;SDS011;62987;52.382;9.752;2023-07-29T08:09:01;2.88;;;1.00;;
72559;SDS011;62987;52.382;9.752;2023-07-29T08:11:29;5.70;;;1.35;;
72559;SDS011;62987;52.382;9.752;2023-07-29T08:13:58;2.55;;;1.13;;
72559;SDS011;62987;52.382;9.752;2023-07-29T08:16:27;2.88;;;1.10;;
72559;SDS011;62987;52.382;9.752;2023-07-29T08:18:55;5.13;;;2.30;;
72559;SDS011;62987;52.382;9.752;2023-07-29T08:21:23;3.08;;;1.48;;
72559;SDS011;62987;52.382;9.752;2023-07-29T08:23:51;2.47;;;1.15;;
72559;SDS011;62987;52.382;9.752;2023-07-29T08:26:19;6.25;;;2.42;;
72559;SDS011;62987;52.382;9.752;2023-07-29T08:28:48;5.63;;;1.75;;
72559;SDS011;62987;52.382;9.752;2023-07-29T08:31:18;3.10;;;1.40;;
72559;SDS011;62987;52.382;9.752;2023-07-29T08:33:48;3.00;;;1.30;;
72559;SDS011;62987;52.382;9.752;2023-07-29T08:36:15;2.85;;;1.25;;
72559;SDS011;62987;52.382;9.752;2023-07-29T08:38:43;3.53;;;1.58;;
72559;SDS011;62987;52.382;9.752;2023-07-29T08:41:13;3.08;;;1.35;;
72559;SDS011;62987;52.382;9.752;2023-07-29T08:43:43;4.53;;;1.92;;
72559;SDS011;62987;52.382;9.752;2023-07-29T08:46:16;4.75;;;2.10;;
72559;SDS011;62987;52.382;9.752;2023-07-29T08:48:43;5.20;;;2.20;;
72559;SDS011;62987;52.382;9.752;2023-07-29T08:51:13;3.75;;;1.70;;
72559;SDS011;62987;52.382;9.752;2023-07-29T08:53:43;3.80;;;1.80;;
72559;SDS011;62987;52.382;9.752;2023-07-29T08:56:11;3.30;;;1.52;;
72559;SDS011;62987;52.382;9.752;2023-07-29T08:58:39;4.10;;;1.88;;
72559;SDS011;62987;52.382;9.752;2023-07-29T09:01:07;3.13;;;1.23;;
72559;SDS011;62987;52.382;9.752;2023-07-29T09:03:36;3.17;;;1.45;;
72559;SDS011;62987;52.382;9.752;2023-07-29T09:06:04;6.07;;;1.70;;
72559;SDS011;62987;52.382;9.752;2023-07-29T09:08:36;3.40;;;1.77;;
72559;SDS011;62987;52.382;9.752;2023-07-29T09:11:04;3.70;;;1.50;;
72559;SDS011;62987;52.382;9.752;2023-07-29T09:13:32;3.72;;;1.75;;
72559;SDS011;62987;52.382;9.752;2023-07-29T09:16:00;4.15;;;1.85;;
72559;SDS011;62987;52.382;9.752;2023-07-29T09:18:29;3.05;;;1.63;;
72559;SDS011;62987;52.382;9.752;2023-07-29T09:20:58;2.40;;;1.13;;
72559;SDS011;62987;52.382;9.752;2023-07-29T09:23:27;6.03;;;1.58;;
72559;SDS011;62987;52.382;9.752;2023-07-29T09:26:01;3.00;;;1.40;;
72559;SDS011;62987;52.382;9.752;2023-07-29T09:28:32;2.97;;;1.42;;
72559;SDS011;62987;52.382;9.752;2023-07-29T09:31:01;7.38;;;2.75;;
72559;SDS011;62987;52.382;9.752;2023-07-29T09:33:30;5.30;;;2.70;;
72559;SDS011;62987;52.382;9.752;2023-07-29T09:36:02;4.28;;;1.73;;
72559;SDS011;62987;52.382;9.752;2023-07-29T09:38:31;6.43;;;1.92;;
72559;SDS011;62987;52.382;9.752;2023-07-29T09:40:58;5.78;;;2.45;;
72559;SDS011;62987;52.382;9.752;2023-07-29T09:43:33;5.80;;;2.60;;
72559;SDS011;62987;52.382;9.752;2023-07-29T09:46:03;4.22;;;2.15;;
72559;SDS011;62987;52.382;9.752;2023-07-29T09:48:33;6.40;;;3.15;;
72559;SDS011;62987;52.382;9.752;2023-07-29T09:51:09;8.13;;;2.60;;
72559;SDS011;62987;52.382;9.752;2023-07-29T09:53:39;6.55;;;3.47;;
72559;SDS011;62987;52.382;9.752;2023-07-29T09:56:12;9.27;;;4.13;;
72559;SDS011;62987;52.382;9.752;2023-07-29T09:58:43;9.60;;;2.95;;
72559;SDS011;62987;52.382;9.752;2023-07-29T10:01:12;4.97;;;2.55;;
72559;SDS011;62987;52.382;9.752;2023-07-29T10:03:41;5.68;;;3.35;;
72559;SDS011;62987;52.382;9.752;2023-07-29T10:06:11;6.00;;;3.08;;
72559;SDS011;62987;52.382;9.752;2023-07-29T10:08:42;6.38;;;2.97;;
72559;SDS011;62987;52.382;9.752;2023-07-29T10:11:11;7.25;;;3.00;;
72559;SDS011;62987;52.382;9.752;2023-07-29T10:13:39;6.90;;;3.25;;
72559;SDS011;62987;52.382;9.752;2023-07-29T10:16:12;7.70;;;3.05;;
72559;SDS011;62987;52.382;9.752;2023-07-29T10:18:41;5.57;;;2.70;;
72559;SDS011;62987;52.382;9.752;2023-07-29T10:21:10;6.45;;;2.75;;
72559;SDS011;62987;52.382;9.752;2023-07-29T10:23:42;6.50;;;3.33;;
72559;SDS011;62987;52.382;9.752;2023-07-29T10:26:14;5.78;;;3.22;;
72559;SDS011;62987;52.382;9.752;2023-07-29T10:28:47;5.88;;;3.10;;
72559;SDS011;62987;52.382;9.752;2023-07-29T10:31:22;6.85;;;2.95;;
72559;SDS011;62987;52.382;9.752;2023-07-29T10:33:50;7.43;;;3.58;;
72559;SDS011;62987;52.382;9.752;2023-07-29T10:36:19;5.57;;;2.78;;
72559;SDS011;62987;52.382;9.752;2023-07-29T10:38:57;4.72;;;2.50;;
72559;SDS011;62987;52.382;9.752;2023-07-29T10:41:37;3.70;;;1.95;;
72559;SDS011;62987;52.382;9.752;2023-07-29T10:47:19;4.07;;;2.17;;
72559;SDS011;62987;52.382;9.752;2023-07-29T10:49:49;4.50;;;2.08;;
72559;SDS011;62987;52.382;9.752;2023-07-29T10:52:30;3.88;;;1.98;;
72559;SDS011;62987;52.382;9.752;2023-07-29T10:55:27;7.97;;;3.25;;
72559;SDS011;62987;52.382;9.752;2023-07-29T10:58:04;3.13;;;1.50;;
72559;SDS011;62987;52.382;9.752;2023-07-29T11:00:47;4.68;;;1.85;;
72559;SDS011;62987;52.382;9.752;2023-07-29T11:03:18;3.00;;;1.50;;
72559;SDS011;62987;52.382;9.752;2023-07-29T11:05:49;3.70;;;1.77;;
72559;SDS011;62987;52.382;9.752;2023-07-29T11:08:19;2.90;;;1.40;;
72559;SDS011;62987;52.382;9.752;2023-07-29T11:10:59;3.97;;;1.88;;
72559;SDS011;62987;52.382;9.752;2023-07-29T11:13:30;4.03;;;1.63;;
72559;SDS011;62987;52.382;9.752;2023-07-29T11:15:59;3.17;;;1.35;;
72559;SDS011;62987;52.382;9.752;2023-07-29T11:18:29;4.47;;;1.92;;
72559;SDS011;62987;52.382;9.752;2023-07-29T11:21:00;3.67;;;1.58;;
72559;SDS011;62987;52.382;9.752;2023-07-29T11:23:29;3.72;;;1.65;;
72559;SDS011;62987;52.382;9.752;2023-07-29T11:26:01;3.08;;;1.45;;
72559;SDS011;62987;52.382;9.752;2023-07-29T11:28:30;5.43;;;1.83;;
72559;SDS011;62987;52.382;9.752;2023-07-29T11:30:58;3.35;;;1.30;;
72559;SDS011;62987;52.382;9.752;2023-07-29T11:33:27;5.75;;;2.70;;
72559;SDS011;62987;52.382;9.752;2023-07-29T11:35:56;3.30;;;1.40;;
72559;SDS011;62987;52.382;9.752;2023-07-29T11:38:24;4.32;;;1.40;;
72559;SDS011;62987;52.382;9.752;2023-07-29T11:40:58;2.92;;;1.33;;
72559;SDS011;62987;52.382;9.752;2023-07-29T11:43:29;2.05;;;0.93;;
72559;SDS011;62987;52.382;9.752;2023-07-29T11:45:57;1.52;;;0.75;;
72559;SDS011;62987;52.382;9.752;2023-07-29T11:48:30;2.35;;;0.80;;
72559;SDS011;62987;52.382;9.752;2023-07-29T11:51:01;1.08;;;0.60;;
72559;SDS011;62987;52.382;9.752;2023-07-29T11:53:30;0.82;;;0.50;;
72559;SDS011;62987;52.382;9.752;2023-07-29T11:56:01;2.22;;;1.00;;
72559;SDS011;62987;52.382;9.752;2023-07-29T11:58:40;3.28;;;1.05;;
72559;SDS011;62987;52.382;9.752;2023-07-29T12:01:09;1.30;;;0.70;;
72559;SDS011;62987;52.382;9.752;2023-07-29T12:03:37;1.60;;;0.90;;
72559;SDS011;62987;52.382;9.752;2023-07-29T12:06:11;1.63;;;0.70;;
72559;SDS011;62987;52.382;9.752;2023-07-29T12:08:44;1.38;;;0.77;;
72559;SDS011;62987;52.382;9.752;2023-07-29T12:11:12;1.75;;;0.63;;
72559;SDS011;62987;52.382;9.752;2023-07-29T12:13:41;1.30;;;0.60;;
72559;SDS011;62987;52.382;9.752;2023-07-29T12:16:10;1.77;;;0.70;;
72559;SDS011;62987;52.382;9.752;2023-07-29T12:18:44;1.38;;;0.80;;
72559;SDS011;62987;52.382;9.752;2023-07-29T12:21:16;2.15;;;0.80;;
72559;SDS011;62987;52.382;9.752;2023-07-29T12:23:45;1.50;;;0.70;;
72559;SDS011;62987;52.382;9.752;2023-07-29T12:26:13;1.25;;;0.60;;
72559;SDS011;62987;52.382;9.752;2023-07-29T12:28:45;1.85;;;0.80;;
72559;SDS011;62987;52.382;9.752;2023-07-29T12:31:13;1.50;;;0.65;;
72559;SDS011;62987;52.382;9.752;2023-07-29T12:33:41;2.38;;;0.80;;
72559;SDS011;62987;52.382;9.752;2023-07-29T12:36:09;1.75;;;0.93;;
72559;SDS011;62987;52.382;9.752;2023-07-29T12:38:39;1.60;;;0.77;;
72559;SDS011;62987;52.382;9.752;2023-07-29T12:41:10;2.65;;;0.88;;
72559;SDS011;62987;52.382;9.752;2023-07-29T12:43:43;1.52;;;0.70;;
72559;SDS011;62987;52.382;9.752;2023-07-29T12:46:13;0.98;;;0.45;;
72559;SDS011;62987;52.382;9.752;2023-07-29T12:48:44;1.65;;;0.80;;
72559;SDS011;62987;52.382;9.752;2023-07-29T12:51:12;1.25;;;0.70;;
72559;SDS011;62987;52.382;9.752;2023-07-29T12:53:42;2.80;;;0.60;;
72559;SDS011;62987;52.382;9.752;2023-07-29T12:56:10;1.58;;;0.90;;
72559;SDS011;62987;52.382;9.752;2023-07-29T12:58:38;0.95;;;0.60;;
72559;SDS011;62987;52.382;9.752;2023-07-29T13:01:06;1.80;;;0.70;;
72559;SDS011;62987;52.382;9.752;2023-07-29T13:03:43;1.40;;;0.60;;
72559;SDS011;62987;52.382;9.752;2023-07-29T13:06:11;1.10;;;0.60;;
72559;SDS011;62987;52.382;9.752;2023-07-29T13:08:39;1.88;;;0.75;;
72559;SDS011;62987;52.382;9.752;2023-07-29T13:11:09;1.83;;;0.68;;
72559;SDS011;62987;52.382;9.752;2023-07-29T13:13:37;0.93;;;0.40;;
72559;SDS011;62987;52.382;9.752;2023-07-29T13:16:05;2.17;;;0.88;;
72559;SDS011;62987;52.382;9.752;2023-07-29T13:18:33;1.27;;;0.70;;
72559;SDS011;62987;52.382;9.752;2023-07-29T13:21:03;1.42;;;0.80;;
72559;SDS011;62987;52.382;9.752;2023-07-29T13:23:33;1.05;;;0.77;;
72559;SDS011;62987;52.382;9.752;2023-07-29T13:26:04;1.20;;;0.63;;
72559;SDS011;62987;52.382;9.752;2023-07-29T13:28:34;4.90;;;0.80;;
72559;SDS011;62987;52.382;9.752;2023-07-29T13:31:02;1.13;;;0.50;;
72559;SDS011;62987;52.382;9.752;2023-07-29T13:33:34;2.15;;;0.85;;
72559;SDS011;62987;52.382;9.752;2023-07-29T13:36:03;1.48;;;0.88;;
72559;SDS011;62987;52.382;9.752;2023-07-29T13:38:31;1.00;;;0.50;;
72559;SDS011;62987;52.382;9.752;2023-07-29T13:41:02;1.23;;;0.70;;
72559;SDS011;62987;52.382;9.752;2023-07-29T13:43:30;2.00;;;0.90;;
72559;SDS011;62987;52.382;9.752;2023-07-29T13:45:59;3.28;;;1.10;;
72559;SDS011;62987;52.382;9.752;2023-07-29T13:48:27;1.42;;;0.80;;
72559;SDS011;62987;52.382;9.752;2023-07-29T13:50:55;0.70;;;0.40;;
72559;SDS011;62987;52.382;9.752;2023-07-29T13:53:23;1.00;;;0.60;;
72559;SDS011;62987;52.382;9.752;2023-07-29T13:55:52;1.88;;;0.60;;
72559;SDS011;62987;52.382;9.752;2023-07-29T13:58:20;1.42;;;0.70;;
72559;SDS011;62987;52.382;9.752;2023-07-29T14:00:48;1.90;;;0.90;;
72559;SDS011;62987;52.382;9.752;2023-07-29T14:03:20;2.63;;;0.80;;
72559;SDS011;62987;52.382;9.752;2023-07-29T14:05:48;0.77;;;0.60;;
72559;SDS011;62987;52.382;9.752;2023-07-29T14:08:16;1.33;;;0.73;;
72559;SDS011;62987;52.382;9.752;2023-07-29T14:10:44;1.58;;;0.60;;
72559;SDS011;62987;52.382;9.752;2023-07-29T14:13:12;1.05;;;0.55;;
72559;SDS011;62987;52.382;9.752;2023-07-29T14:15:40;1.90;;;0.80;;
72559;SDS011;62987;52.382;9.752;2023-07-29T14:18:08;1.92;;;0.80;;
72559;SDS011;62987;52.382;9.752;2023-07-29T14:20:38;2.17;;;0.90;;
72559;SDS011;62987;52.382;9.752;2023-07-29T14:23:08;1.17;;;0.70;;
72559;SDS011;62987;52.382;9.752;2023-07-29T14:25:36;1.13;;;0.63;;
72559;SDS011;62987;52.382;9.752;2023-07-29T14:28:04;2.70;;;0.65;;
72559;SDS011;62987;52.382;9.752;2023-07-29T14:30:37;2.22;;;0.93;;
72559;SDS011;62987;52.382;9.752;2023-07-29T14:33:07;2.13;;;0.90;;
72559;SDS011;62987;52.382;9.752;2023-07-29T14:35:35;2.08;;;0.70;;
72559;SDS011;62987;52.382;9.752;2023-07-29T14:38:06;2.17;;;0.80;;
72559;SDS011;62987;52.382;9.752;2023-07-29T14:40:34;1.60;;;0.70;;
72559;SDS011;62987;52.382;9.752;2023-07-29T14:43:02;1.40;;;0.80;;
72559;SDS011;62987;52.382;9.752;2023-07-29T14:45:31;1.58;;;0.75;;
72559;SDS011;62987;52.382;9.752;2023-07-29T14:47:59;1.73;;;0.80;;
72559;SDS011;62987;52.382;9.752;2023-07-29T14:50:33;1.95;;;0.82;;
72559;SDS011;62987;52.382;9.752;2023-07-29T14:53:05;1.60;;;0.80;;
72559;SDS011;62987;52.382;9.752;2023-07-29T14:55:34;2.22;;;0.73;;
72559;SDS011;62987;52.382;9.752;2023-07-29T14:58:02;1.52;;;0.82;;
72559;SDS011;62987;52.382;9.752;2023-07-29T15:00:30;1.70;;;0.70;;
72559;SDS011;62987;52.382;9.752;2023-07-29T15:03:01;2.92;;;1.33;;
72559;SDS011;62987;52.382;9.752;2023-07-29T15:05:29;2.05;;;0.93;;